Time;durP1;ratioP1;P1;durP2;ratioP2;P2;SDS_P1;SDS_P2;PMS_P1;PMS_P2;Temp;Humidity;BMP_temperature;BMP_pressure;BME280_temperature;BME280_humidity;BME280_pressure;Samples;Min_cycle;Max_cycle;Signal;HPM_P1;HPM_P2
2023/06/20 00:02:22;;;;;;;7.43;6.82;;;24.00;87.30;;;;;;6205319;28;89158;-69
2023/06/20 00:05:24;;;;;;;7.43;6.78;;;24.10;87.40;;;;;;6207466;28;89017;-69
2023/06/20 00:08:26;;;;;;;6.75;6.15;;;24.10;87.40;;;;;;6207998;28;88245;-69
2023/06/20 00:11:28;;;;;;;7.18;6.57;;;24.10;87.30;;;;;;6207816;28;89303;-70
2023/06/20 00:14:32;;;;;;;6.85;6.25;;;24.00;87.20;;;;;;6206659;28;89066;-69
2023/06/20 00:17:33;;;;;;;6.90;6.30;;;24.10;87.20;;;;;;6199055;28;90134;-69
2023/06/20 00:20:36;;;;;;;7.20;6.60;;;24.10;87.20;;;;;;6204190;28;89541;-69
2023/06/20 00:23:38;;;;;;;6.70;6.20;;;24.10;87.20;;;;;;6199652;28;88996;-69
2023/06/20 00:26:40;;;;;;;6.93;6.32;;;24.10;87.20;;;;;;6207110;28;89304;-69
2023/06/20 00:29:43;;;;;;;6.70;6.20;;;24.10;87.20;;;;;;6205396;28;89108;-69
2023/06/20 00:32:45;;;;;;;6.88;6.28;;;24.00;87.10;;;;;;6203263;28;89063;-69
2023/06/20 00:35:47;;;;;;;6.78;6.28;;;24.00;87.20;;;;;;6194215;28;89103;-69
2023/06/20 00:38:49;;;;;;;7.53;6.82;;;24.00;87.20;;;;;;6190505;28;88701;-69
2023/06/20 00:41:51;;;;;;;7.38;6.78;;;24.10;87.30;;;;;;6200800;28;90184;-69
2023/06/20 00:44:55;;;;;;;7.65;7.03;;;24.10;87.30;;;;;;6204756;28;89033;-69
2023/06/20 00:47:58;;;;;;;7.40;6.80;;;24.00;87.30;;;;;;6205924;28;90321;-69
2023/06/20 00:51:00;;;;;;;7.88;7.18;;;24.10;87.40;;;;;;6204334;28;89200;-69
2023/06/20 00:54:03;;;;;;;7.78;7.18;;;24.10;87.40;;;;;;6193356;28;89098;-69
2023/06/20 00:57:05;;;;;;;7.22;6.63;;;24.10;87.40;;;;;;6202992;28;89068;-69
2023/06/20 01:00:12;;;;;;;6.95;6.35;;;24.10;87.40;;;;;;6205751;28;89378;-69
2023/06/20 01:03:15;;;;;;;6.97;6.38;;;24.10;87.30;;;;;;6195583;28;89270;-69
2023/06/20 01:06:27;;;;;;;6.60;6.10;;;24.10;87.20;;;;;;6199020;28;89187;-69
2023/06/20 01:09:38;;;;;;;7.10;6.50;;;24.10;87.10;;;;;;6202261;28;88617;-69
2023/06/20 01:12:46;;;;;;;7.57;6.97;;;24.10;87.10;;;;;;6205391;28;88995;-69
2023/06/20 01:16:00;;;;;;;7.20;6.60;;;24.10;87.10;;;;;;6195427;28;89308;-69
2023/06/20 01:19:12;;;;;;;7.03;6.43;;;24.00;87.10;;;;;;6205934;28;90171;-69
2023/06/20 01:22:21;;;;;;;7.30;6.70;;;24.10;88.10;;;;;;6189680;28;89283;-69
2023/06/20 01:25:34;;;;;;;7.22;6.63;;;24.10;87.20;;;;;;6190951;28;89020;-69
2023/06/20 01:28:41;;;;;;;7.53;6.93;;;24.10;87.10;;;;;;6203417;28;87943;-69
2023/06/20 01:31:55;;;;;;;8.18;7.40;;;24.10;87.20;;;;;;6196962;28;90633;-69
2023/06/20 01:35:06;;;;;;;8.30;7.60;;;24.00;87.10;;;;;;6194806;28;89079;-69
2023/06/20 01:38:09;;;;;;;8.23;7.53;;;24.00;87.30;;;;;;6204178;28;87940;-68
2023/06/20 01:41:14;;;;;;;8.27;7.57;;;24.00;87.30;;;;;;6205309;28;88232;-69
2023/06/20 01:44:18;;;;;;;8.15;7.45;;;24.10;87.40;;;;;;6203222;28;89297;-69
2023/06/20 01:47:23;;;;;;;8.25;7.55;;;24.10;87.40;;;;;;6205253;28;89059;-69
2023/06/20 01:50:27;;;;;;;8.27;7.47;;;24.10;87.40;;;;;;6200605;28;90115;-69
2023/06/20 01:53:30;;;;;;;8.20;7.43;;;24.10;87.40;;;;;;6204963;28;89115;-69
2023/06/20 01:56:35;;;;;;;7.85;7.15;;;24.10;87.20;;;;;;6202927;28;88055;-69
2023/06/20 01:59:38;;;;;;;8.30;7.50;;;24.00;87.10;;;;;;6195029;28;89388;-69
2023/06/20 02:02:41;;;;;;;7.82;7.13;;;24.10;87.10;;;;;;6206216;28;89396;-69
2023/06/20 02:05:44;;;;;;;7.57;6.97;;;24.10;87.10;;;;;;6205046;28;89110;-69
2023/06/20 02:08:46;;;;;;;8.10;7.40;;;24.10;87.10;;;;;;6204908;28;89183;-69
2023/06/20 02:11:50;;;;;;;8.23;7.53;;;24.10;87.10;;;;;;6203664;28;88779;-70
2023/06/20 02:14:53;;;;;;;8.00;7.30;;;24.10;87.10;;;;;;6204233;28;88994;-69
2023/06/20 02:17:56;;;;;;;7.90;7.25;;;24.00;87.10;;;;;;6193079;28;89366;-69
2023/06/20 02:21:00;;;;;;;8.05;7.38;;;24.10;87.10;;;;;;6203139;28;89968;-69
2023/06/20 02:24:03;;;;;;;8.00;7.30;;;24.00;87.10;;;;;;6203343;28;88839;-69
2023/06/20 02:27:09;;;;;;;8.40;7.70;;;24.00;87.10;;;;;;6201551;28;89021;-70
2023/06/20 02:30:13;;;;;;;8.70;8.00;;;24.00;87.20;;;;;;6197266;28;88975;-69
2023/06/20 02:33:16;;;;;;;9.23;8.43;;;24.00;87.30;;;;;;6195858;28;89064;-70
2023/06/20 02:36:24;;;;;;;10.00;9.00;;;24.10;87.40;;;;;;6195266;28;89337;-69
2023/06/20 02:39:26;;;;;;;8.95;8.20;;;24.10;87.40;;;;;;6207785;28;88743;-69
2023/06/20 02:42:29;;;;;;;8.55;7.85;;;24.10;87.40;;;;;;6200059;28;88338;-70
2023/06/20 02:45:31;;;;;;;8.40;7.70;;;24.10;87.40;;;;;;6207245;28;87880;-70
2023/06/20 02:48:41;;;;;;;8.68;7.97;;;24.10;87.20;;;;;;6204983;28;89507;-69
2023/06/20 02:51:51;;;;;;;8.07;7.38;;;24.10;87.10;;;;;;6200857;28;90530;-69
2023/06/20 02:55:00;;;;;;;8.23;7.53;;;24.10;87.10;;;;;;6202078;28;87992;-69
2023/06/20 02:58:11;;;;;;;8.35;7.65;;;24.10;87.10;;;;;;6201584;28;89478;-70
2023/06/20 03:01:25;;;;;;;9.18;8.38;;;24.10;87.10;;;;;;6208070;28;89002;-69
2023/06/20 03:04:32;;;;;;;8.43;7.72;;;24.10;87.10;;;;;;6199846;28;87956;-69
2023/06/20 03:07:35;;;;;;;8.70;7.95;;;24.10;87.10;;;;;;6199974;28;89077;-70
2023/06/20 03:10:37;;;;;;;8.30;7.60;;;24.10;87.10;;;;;;6206789;28;89178;-70
2023/06/20 03:13:41;;;;;;;8.73;8.02;;;24.00;87.10;;;;;;6198214;28;88557;-69
2023/06/20 03:16:43;;;;;;;9.35;8.55;;;24.10;87.20;;;;;;6195206;28;88974;-69
2023/06/20 03:19:45;;;;;;;9.45;8.65;;;24.10;87.20;;;;;;6207700;28;88279;-69
2023/06/20 03:22:47;;;;;;;9.70;8.82;;;24.10;87.20;;;;;;6199380;28;90396;-70
2023/06/20 03:25:49;;;;;;;9.35;8.52;;;24.00;87.30;;;;;;6206973;28;89062;-69
2023/06/20 03:28:52;;;;;;;9.73;8.93;;;24.10;87.30;;;;;;6203949;28;89402;-69
2023/06/20 03:31:56;;;;;;;9.45;8.63;;;24.10;87.40;;;;;;6195511;28;88708;-69
2023/06/20 03:34:58;;;;;;;9.63;8.82;;;24.00;87.20;;;;;;6206522;28;87853;-69
2023/06/20 03:38:00;;;;;;;9.00;8.20;;;24.00;87.20;;;;;;6206691;28;89157;-69
2023/06/20 03:41:02;;;;;;;9.02;8.23;;;24.10;87.20;;;;;;6203867;28;89140;-69
2023/06/20 03:44:05;;;;;;;8.32;7.63;;;24.10;87.20;;;;;;6197566;28;88288;-69
2023/06/20 03:47:07;;;;;;;9.40;8.60;;;24.00;87.10;;;;;;6201910;28;89074;-69
2023/06/20 03:50:09;;;;;;;9.18;8.38;;;24.10;87.10;;;;;;6203541;28;88169;-69
2023/06/20 03:53:11;;;;;;;9.32;8.52;;;24.10;87.10;;;;;;6205613;28;90160;-69
2023/06/20 03:56:13;;;;;;;9.57;8.68;;;24.00;87.10;;;;;;6207477;28;89033;-69
2023/06/20 03:59:18;;;;;;;9.52;8.68;;;24.00;87.90;;;;;;6208298;28;88419;-69
2023/06/20 04:02:19;;;;;;;9.13;8.32;;;24.10;87.20;;;;;;6198185;28;89163;-69
2023/06/20 04:05:22;;;;;;;9.45;8.55;;;24.10;87.20;;;;;;6201730;28;89338;-69
2023/06/20 04:08:25;;;;;;;8.65;7.85;;;24.00;87.10;;;;;;6200196;28;89099;-69
2023/06/20 04:11:27;;;;;;;9.75;8.85;;;24.10;87.20;;;;;;6208080;28;90295;-69
2023/06/20 04:14:30;;;;;;;8.75;8.00;;;24.10;87.20;;;;;;6205315;28;88304;-69
2023/06/20 04:17:32;;;;;;;8.90;8.20;;;24.10;87.30;;;;;;6194556;28;88373;-69
2023/06/20 04:20:34;;;;;;;9.05;8.25;;;24.00;87.20;;;;;;6207010;28;89040;-69
2023/06/20 04:23:37;;;;;;;9.02;8.25;;;24.00;87.20;;;;;;6205547;28;88787;-69
2023/06/20 04:26:39;;;;;;;8.93;8.13;;;24.10;87.40;;;;;;6205256;28;89392;-70
2023/06/20 04:29:43;;;;;;;8.98;8.18;;;24.00;87.30;;;;;;6199364;28;89128;-69
2023/06/20 04:32:45;;;;;;;8.43;7.72;;;24.10;87.40;;;;;;6207377;28;89471;-69
2023/06/20 04:35:47;;;;;;;8.68;7.88;;;24.10;87.30;;;;;;6207398;28;91299;-69
2023/06/20 04:38:49;;;;;;;8.77;7.97;;;24.10;87.40;;;;;;6202075;28;89067;-69
2023/06/20 04:41:51;;;;;;;8.73;8.02;;;24.10;87.30;;;;;;6206904;28;87965;-70
2023/06/20 04:44:54;;;;;;;8.60;7.90;;;24.10;87.40;;;;;;6206990;28;88126;-69
2023/06/20 04:47:56;;;;;;;8.65;7.95;;;24.10;87.40;;;;;;6205661;28;88998;-69
2023/06/20 04:50:58;;;;;;;8.52;7.75;;;24.10;87.40;;;;;;6205415;28;87981;-69
2023/06/20 04:54:00;;;;;;;9.32;8.50;;;24.10;87.40;;;;;;6205429;28;90056;-69
2023/06/20 04:57:03;;;;;;;8.90;8.20;;;24.10;87.40;;;;;;6193487;28;89146;-70
2023/06/20 05:00:12;;;;;;;8.70;7.82;;;24.10;87.40;;;;;;6206379;28;89389;-69
2023/06/20 05:03:14;;;;;;;8.50;7.80;;;24.10;87.50;;;;;;6195685;28;89119;-69
2023/06/20 05:06:18;;;;;;;9.38;8.40;;;24.10;87.50;;;;;;6205172;28;89088;-69
2023/06/20 05:09:20;;;;;;;9.55;8.65;;;24.10;87.50;;;;;;6206168;28;89000;-69
2023/06/20 05:12:22;;;;;;;9.15;8.35;;;24.10;87.40;;;;;;6207269;28;89370;-69
2023/06/20 05:15:25;;;;;;;8.82;8.13;;;24.10;87.40;;;;;;6187863;28;89304;-69
2023/06/20 05:18:27;;;;;;;9.18;8.38;;;24.10;87.40;;;;;;6202411;28;89129;-69
2023/06/20 05:21:29;;;;;;;9.00;8.30;;;24.10;87.60;;;;;;6204953;28;89167;-69
2023/06/20 05:24:31;;;;;;;9.45;8.63;;;24.10;87.50;;;;;;6205322;28;90030;-69
2023/06/20 05:27:33;;;;;;;9.50;8.70;;;24.10;88.40;;;;;;6205664;28;89094;-69
2023/06/20 05:30:36;;;;;;;9.15;8.25;;;24.10;87.50;;;;;;6202483;28;87880;-68
2023/06/20 05:33:38;;;;;;;9.40;8.60;;;24.10;87.60;;;;;;6201555;28;89181;-69
2023/06/20 05:36:40;;;;;;;9.68;8.88;;;24.10;87.60;;;;;;6206095;28;89043;-69
2023/06/20 05:39:42;;;;;;;9.60;8.80;;;24.10;87.60;;;;;;6205297;28;87940;-69
2023/06/20 05:42:44;;;;;;;9.82;8.93;;;24.10;87.60;;;;;;6205223;28;89019;-69
2023/06/20 05:45:47;;;;;;;10.70;9.68;;;24.10;87.60;;;;;;6204393;28;88343;-69
2023/06/20 05:48:49;;;;;;;9.40;8.50;;;24.10;87.70;;;;;;6205477;28;89175;-69
2023/06/20 05:51:54;;;;;;;9.43;8.63;;;24.10;87.70;;;;;;6205480;28;89090;-69
2023/06/20 05:54:56;;;;;;;9.40;8.60;;;24.10;88.60;;;;;;6194713;28;90215;-69
2023/06/20 05:57:58;;;;;;;8.73;8.00;;;24.10;87.70;;;;;;6203460;28;89488;-69
2023/06/20 06:01:01;;;;;;;9.20;8.40;;;24.10;87.60;;;;;;6205265;28;89047;-69
2023/06/20 06:04:03;;;;;;;8.80;8.10;;;24.10;87.60;;;;;;6198212;28;89121;-69
2023/06/20 06:07:07;;;;;;;9.40;8.60;;;24.10;87.60;;;;;;6209351;28;89095;-69
2023/06/20 06:10:10;;;;;;;9.18;8.38;;;24.10;87.70;;;;;;6209591;28;89198;-69
2023/06/20 06:13:12;;;;;;;9.40;8.60;;;24.10;87.60;;;;;;6209838;28;88033;-69
2023/06/20 06:16:15;;;;;;;9.48;8.68;;;24.10;87.60;;;;;;6209064;28;88664;-68
2023/06/20 06:19:18;;;;;;;8.90;8.10;;;24.10;87.60;;;;;;6210400;28;89036;-69
2023/06/20 06:22:20;;;;;;;9.20;8.40;;;24.10;87.60;;;;;;6208509;28;89236;-69
2023/06/20 06:25:22;;;;;;;9.18;8.38;;;24.10;87.70;;;;;;6208519;28;90027;-70
2023/06/20 06:28:26;;;;;;;9.20;8.40;;;24.10;87.60;;;;;;6208445;28;89068;-69
2023/06/20 06:31:31;;;;;;;9.80;8.90;;;24.10;87.60;;;;;;6207136;28;89275;-69
2023/06/20 06:34:34;;;;;;;9.68;8.80;;;24.10;87.60;;;;;;6209260;28;89345;-69
2023/06/20 06:37:36;;;;;;;9.52;8.73;;;24.10;87.70;;;;;;6209855;28;89476;-69
2023/06/20 06:40:38;;;;;;;9.80;9.00;;;24.10;87.70;;;;;;6204811;28;89192;-69
2023/06/20 06:43:40;;;;;;;9.10;8.30;;;24.10;87.60;;;;;;6208248;28;89076;-69
2023/06/20 06:46:44;;;;;;;9.13;8.32;;;24.10;87.60;;;;;;6196597;28;89268;-69
2023/06/20 06:49:46;;;;;;;8.82;8.13;;;24.10;87.60;;;;;;6208966;28;89372;-69
2023/06/20 06:52:48;;;;;;;9.27;8.48;;;24.10;87.60;;;;;;6208423;28;89178;-69
2023/06/20 06:55:50;;;;;;;9.18;8.38;;;24.10;87.60;;;;;;6208456;28;90455;-69
2023/06/20 06:58:53;;;;;;;9.10;8.30;;;24.10;87.60;;;;;;6208534;28;89024;-69
2023/06/20 07:01:58;;;;;;;9.60;8.70;;;24.10;87.60;;;;;;6200110;28;89194;-69
2023/06/20 07:05:00;;;;;;;9.30;8.50;;;24.10;87.70;;;;;;6207951;28;89138;-69
2023/06/20 07:08:02;;;;;;;9.48;8.68;;;24.10;87.60;;;;;;6207804;28;89167;-69
2023/06/20 07:11:04;;;;;;;9.23;8.43;;;24.10;87.60;;;;;;6208355;28;89122;-69
2023/06/20 07:14:06;;;;;;;9.50;8.70;;;24.10;87.60;;;;;;6205956;28;89394;-68
2023/06/20 07:17:09;;;;;;;9.10;8.35;;;24.10;87.50;;;;;;6206941;28;88478;-69
2023/06/20 07:20:12;;;;;;;9.25;8.45;;;24.10;87.50;;;;;;6208249;28;88114;-69
2023/06/20 07:23:14;;;;;;;9.38;8.52;;;24.10;87.50;;;;;;6207254;28;89005;-69
2023/06/20 07:26:16;;;;;;;9.10;8.30;;;24.10;87.50;;;;;;6205625;28;90088;-69
2023/06/20 07:29:18;;;;;;;9.85;8.95;;;24.10;87.50;;;;;;6207033;28;89093;-69
2023/06/20 07:32:21;;;;;;;9.10;8.35;;;24.10;87.50;;;;;;6203221;28;89053;-69
2023/06/20 07:35:23;;;;;;;9.30;8.50;;;24.10;87.50;;;;;;6204274;28;88074;-69
2023/06/20 07:38:25;;;;;;;9.13;8.32;;;24.10;87.60;;;;;;6207683;28;87932;-69
2023/06/20 07:41:27;;;;;;;9.57;8.77;;;24.10;87.60;;;;;;6207875;28;89094;-69
2023/06/20 07:44:29;;;;;;;9.20;8.40;;;24.10;87.60;;;;;;6205024;28;89103;-69
2023/06/20 07:47:32;;;;;;;9.50;8.70;;;24.10;87.60;;;;;;6207758;28;88332;-70
2023/06/20 07:50:35;;;;;;;9.63;8.82;;;24.20;87.70;;;;;;6203884;28;89245;-69
2023/06/20 07:53:36;;;;;;;8.93;8.18;;;24.10;88.10;;;;;;6198224;28;89293;-69
2023/06/20 07:56:38;;;;;;;9.63;8.82;;;24.20;87.70;;;;;;6206218;28;90634;-69
2023/06/20 07:59:41;;;;;;;9.35;8.55;;;24.20;87.70;;;;;;6204332;28;89537;-69
2023/06/20 08:02:44;;;;;;;9.50;8.60;;;24.20;87.70;;;;;;6196659;28;89125;-69
2023/06/20 08:05:46;;;;;;;9.10;8.30;;;24.20;87.70;;;;;;6198331;28;89347;-69
2023/06/20 08:08:48;;;;;;;9.40;8.60;;;24.20;87.70;;;;;;6207732;28;87986;-69
2023/06/20 08:11:50;;;;;;;9.98;9.07;;;24.20;87.70;;;;;;6194122;28;88995;-69
2023/06/20 08:14:52;;;;;;;8.70;8.00;;;24.20;87.70;;;;;;6208126;28;88011;-69
2023/06/20 08:17:55;;;;;;;8.73;8.02;;;24.20;87.70;;;;;;6195921;28;88276;-69
2023/06/20 08:20:57;;;;;;;9.15;8.15;;;24.20;87.80;;;;;;6206917;28;89119;-69
2023/06/20 08:23:59;;;;;;;9.20;8.40;;;24.20;87.70;;;;;;6207763;28;89390;-69
2023/06/20 08:27:03;;;;;;;8.90;8.20;;;24.20;87.80;;;;;;6205404;28;90104;-69
2023/06/20 08:30:06;;;;;;;9.20;8.40;;;24.20;87.80;;;;;;6206873;28;89559;-69
2023/06/20 08:33:10;;;;;;;8.65;7.93;;;24.20;87.90;;;;;;6203225;28;89504;-69
2023/06/20 08:36:12;;;;;;;9.60;8.80;;;24.20;87.90;;;;;;6206776;28;89057;-69
2023/06/20 08:39:14;;;;;;;9.02;8.27;;;24.20;87.80;;;;;;6206983;28;89062;-69
2023/06/20 08:42:16;;;;;;;8.63;7.82;;;24.20;87.80;;;;;;6189061;28;89504;-69
2023/06/20 08:45:20;;;;;;;9.02;8.23;;;24.20;88.70;;;;;;6204414;28;89084;-69
2023/06/20 08:48:24;;;;;;;8.95;8.25;;;24.20;87.80;;;;;;6205981;28;88551;-69
2023/06/20 08:51:29;;;;;;;8.57;7.88;;;24.20;87.80;;;;;;6198469;28;88089;-69
2023/06/20 08:54:32;;;;;;;8.45;7.78;;;24.20;87.80;;;;;;6195798;28;89450;-69
2023/06/20 08:57:34;;;;;;;8.40;7.70;;;24.20;87.80;;;;;;6203020;28;89915;-69
2023/06/20 09:00:38;;;;;;;9.48;8.68;;;24.20;87.80;;;;;;6206470;28;89124;-69
2023/06/20 09:03:41;;;;;;;9.02;8.25;;;24.20;87.90;;;;;;6191511;28;89182;-69
2023/06/20 09:06:43;;;;;;;9.35;8.50;;;24.20;87.90;;;;;;6207497;28;90279;-69
2023/06/20 09:09:46;;;;;;;8.88;8.13;;;24.20;87.90;;;;;;6206082;28;89198;-69
2023/06/20 09:12:49;;;;;;;8.88;8.10;;;24.20;87.90;;;;;;6205800;28;89061;-69
2023/06/20 09:16:04;;;;;;;8.80;8.05;;;24.20;87.90;;;;;;6206058;28;89235;-68
2023/06/20 09:19:08;;;;;;;8.85;8.05;;;24.20;87.90;;;;;;6206223;28;88428;-69
2023/06/20 09:22:13;;;;;;;8.68;7.97;;;24.20;88.00;;;;;;6203318;28;90334;-69
2023/06/20 09:25:21;;;;;;;8.15;7.50;;;24.20;88.00;;;;;;6203573;28;89435;-69
2023/06/20 09:28:23;;;;;;;8.52;7.82;;;24.20;87.90;;;;;;6202941;28;89910;-69
2023/06/20 09:31:25;;;;;;;8.85;8.05;;;24.20;87.90;;;;;;6202539;28;89138;-69
2023/06/20 09:34:38;;;;;;;8.32;7.60;;;24.20;88.00;;;;;;6181071;28;89216;-69
2023/06/20 09:37:41;;;;;;;8.70;7.95;;;24.20;88.00;;;;;;6205222;28;89035;-69
2023/06/20 09:40:44;;;;;;;8.32;7.63;;;24.20;88.00;;;;;;6204263;28;89147;-69
2023/06/20 09:43:46;;;;;;;8.93;8.13;;;24.20;87.90;;;;;;6204746;28;89137;-69
2023/06/20 09:46:48;;;;;;;8.05;7.35;;;24.20;87.90;;;;;;6200134;28;89103;-69
2023/06/20 09:49:57;;;;;;;8.10;7.40;;;24.30;88.00;;;;;;6206489;28;88541;-69
2023/06/20 09:53:04;;;;;;;8.13;7.43;;;24.20;87.90;;;;;;6204589;28;89487;-69
2023/06/20 09:56:08;;;;;;;8.43;7.72;;;24.30;87.90;;;;;;6206181;28;87969;-69
2023/06/20 09:59:12;;;;;;;8.07;7.38;;;24.30;88.00;;;;;;6204008;28;90692;-69
2023/06/20 10:02:14;;;;;;;8.20;7.50;;;24.20;87.90;;;;;;6199540;28;89095;-69
2023/06/20 10:05:19;;;;;;;8.45;7.72;;;24.30;87.90;;;;;;6185366;28;89018;-69
2023/06/20 10:08:22;;;;;;;8.27;7.57;;;24.30;88.00;;;;;;6205954;28;89130;-69
2023/06/20 10:11:27;;;;;;;8.23;7.63;;;24.20;88.00;;;;;;6204735;28;89081;-69
2023/06/20 10:14:30;;;;;;;8.10;7.38;;;24.20;88.10;;;;;;6197628;28;88079;-69
2023/06/20 10:17:34;;;;;;;8.27;7.57;;;24.20;88.10;;;;;;6199797;28;89140;-69
2023/06/20 10:20:37;;;;;;;8.73;7.95;;;24.20;88.10;;;;;;6196980;28;88277;-69
2023/06/20 10:23:39;;;;;;;7.63;6.93;;;24.20;88.10;;;;;;6203842;28;89058;-69
2023/06/20 10:26:41;;;;;;;7.90;7.20;;;24.30;88.20;;;;;;6203557;28;89074;-69
2023/06/20 10:29:43;;;;;;;8.90;8.10;;;24.30;88.30;;;;;;6196625;28;90142;-68
2023/06/20 10:33:08;;;;;;;8.20;7.50;;;24.20;88.20;;;;;;6205448;28;89340;-69
2023/06/20 10:36:13;;;;;;;8.30;7.60;;;24.30;88.30;;;;;;6195503;28;89054;-69
2023/06/20 10:39:16;;;;;;;7.85;7.25;;;24.30;88.20;;;;;;6206131;28;89018;-69
2023/06/20 10:42:32;;;;;;;8.40;7.70;;;24.30;88.10;;;;;;6200042;28;89052;-69
2023/06/20 10:45:34;;;;;;;7.60;7.00;;;24.20;88.90;;;;;;6204644;28;89088;-69
2023/06/20 10:48:36;;;;;;;7.55;6.90;;;24.30;88.10;;;;;;6198975;28;89077;-69
2023/06/20 10:51:45;;;;;;;8.27;7.57;;;24.30;88.10;;;;;;6209681;28;88594;-70
2023/06/20 10:54:47;;;;;;;7.78;7.18;;;24.30;88.10;;;;;;6197841;28;89104;-69
2023/06/20 10:57:50;;;;;;;7.63;7.03;;;24.30;88.20;;;;;;6203492;28;88842;-69
2023/06/20 11:00:52;;;;;;;7.93;7.30;;;24.30;88.30;;;;;;6208375;28;90292;-68
2023/06/20 11:03:54;;;;;;;8.00;7.30;;;24.30;88.30;;;;;;6195589;28;89084;-69
2023/06/20 11:06:58;;;;;;;7.90;7.20;;;24.20;88.30;;;;;;6195556;28;89066;-69
2023/06/20 11:09:59;;;;;;;7.50;6.90;;;24.30;88.40;;;;;;6209767;28;89081;-69
2023/06/20 11:13:03;;;;;;;7.78;7.10;;;24.30;88.40;;;;;;6202543;28;90887;-69
2023/06/20 11:16:05;;;;;;;7.68;7.07;;;24.30;88.40;;;;;;6207799;28;88093;-69
2023/06/20 11:19:07;;;;;;;7.75;7.07;;;24.30;88.40;;;;;;6208790;28;89107;-69
2023/06/20 11:22:11;;;;;;;8.20;7.50;;;24.30;88.40;;;;;;6202026;28;88569;-69
2023/06/20 11:25:20;;;;;;;7.40;6.80;;;24.30;88.40;;;;;;6196481;28;88011;-70
2023/06/20 11:28:22;;;;;;;7.63;7.03;;;24.30;88.40;;;;;;6203394;28;89292;-69
2023/06/20 11:31:24;;;;;;;8.00;7.22;;;24.30;88.40;;;;;;6206376;28;90007;-69
2023/06/20 11:34:26;;;;;;;7.38;6.78;;;24.30;88.30;;;;;;6195179;28;88080;-70
2023/06/20 11:37:30;;;;;;;7.93;7.30;;;24.30;88.40;;;;;;6208896;28;89182;-69
2023/06/20 11:40:32;;;;;;;7.55;6.95;;;24.30;88.40;;;;;;6201962;28;89301;-69
2023/06/20 11:43:38;;;;;;;7.90;7.20;;;24.30;88.50;;;;;;6205742;28;89154;-70
2023/06/20 11:46:44;;;;;;;7.25;6.65;;;24.30;88.50;;;;;;6207703;28;89011;-69
2023/06/20 11:49:47;;;;;;;7.88;7.28;;;24.30;88.60;;;;;;6202826;28;89198;-69
2023/06/20 11:52:58;;;;;;;7.50;6.90;;;24.30;88.60;;;;;;6202703;28;88348;-69
2023/06/20 11:56:02;;;;;;;7.35;6.75;;;24.30;88.60;;;;;;6199809;28;89097;-69
2023/06/20 11:59:04;;;;;;;7.28;6.68;;;24.30;88.60;;;;;;6193565;28;88953;-69
2023/06/20 12:02:13;;;;;;;7.07;6.53;;;24.30;88.60;;;;;;6201603;28;90028;-69
2023/06/20 12:05:16;;;;;;;7.30;6.70;;;24.20;88.60;;;;;;6195392;28;89130;-70
2023/06/20 12:08:20;;;;;;;7.00;6.40;;;24.30;88.60;;;;;;6194609;28;88936;-69
2023/06/20 12:11:22;;;;;;;7.43;6.72;;;24.30;88.60;;;;;;6205688;28;89059;-69
2023/06/20 12:14:26;;;;;;;7.07;6.47;;;24.30;88.60;;;;;;6194585;28;87753;-69
2023/06/20 12:17:28;;;;;;;7.15;6.55;;;24.30;88.70;;;;;;6199135;28;89061;-69
2023/06/20 12:20:30;;;;;;;6.93;6.35;;;24.30;88.60;;;;;;6202495;28;89101;-69
2023/06/20 12:23:34;;;;;;;6.75;6.25;;;24.30;88.60;;;;;;6206734;28;88073;-69
2023/06/20 12:26:37;;;;;;;7.15;6.55;;;24.30;88.60;;;;;;6205750;28;89054;-70
2023/06/20 12:29:39;;;;;;;7.05;6.45;;;24.30;88.60;;;;;;6206978;28;89058;-69
2023/06/20 12:32:41;;;;;;;6.90;6.30;;;24.30;88.60;;;;;;6205952;28;90036;-69
2023/06/20 12:35:43;;;;;;;6.80;6.28;;;24.30;88.80;;;;;;6207281;28;89093;-69
2023/06/20 12:38:46;;;;;;;7.10;6.50;;;24.30;88.80;;;;;;6206257;28;89075;-68
2023/06/20 12:41:48;;;;;;;6.82;6.22;;;24.30;88.80;;;;;;6207338;28;89030;-69
2023/06/20 12:44:50;;;;;;;7.30;6.70;;;24.30;88.80;;;;;;6193531;28;89052;-69
2023/06/20 12:47:52;;;;;;;7.20;6.60;;;24.40;88.90;;;;;;6205827;28;88301;-69
2023/06/20 12:50:54;;;;;;;6.90;6.30;;;24.30;88.90;;;;;;6206497;28;89316;-69
2023/06/20 12:53:59;;;;;;;7.35;6.75;;;24.30;88.90;;;;;;6207270;28;88603;-69
2023/06/20 12:57:01;;;;;;;7.20;6.60;;;24.30;88.90;;;;;;6206123;28;89442;-69
2023/06/20 13:00:04;;;;;;;6.45;5.95;;;24.30;88.90;;;;;;6183257;28;89063;-69
2023/06/20 13:03:06;;;;;;;6.95;6.35;;;24.30;88.90;;;;;;6197478;28;90058;-69
2023/06/20 13:06:08;;;;;;;7.05;6.45;;;24.30;89.00;;;;;;6205609;28;89073;-69
2023/06/20 13:09:12;;;;;;;6.40;5.90;;;24.40;89.10;;;;;;6205562;28;88973;-69
2023/06/20 13:12:14;;;;;;;6.47;5.97;;;24.40;89.10;;;;;;6206250;28;89088;-69
2023/06/20 13:15:19;;;;;;;6.45;5.95;;;24.40;89.10;;;;;;6206154;28;89019;-69
2023/06/20 13:18:21;;;;;;;6.68;6.07;;;24.40;89.10;;;;;;6204607;28;88702;-69
2023/06/20 13:21:23;;;;;;;6.90;6.30;;;24.30;88.90;;;;;;6205583;28;88959;-69
2023/06/20 13:24:26;;;;;;;6.68;6.15;;;24.30;88.90;;;;;;6206275;28;87216;-69
2023/06/20 13:27:28;;;;;;;6.65;6.15;;;24.40;88.90;;;;;;6205689;28;87988;-69
2023/06/20 13:30:30;;;;;;;6.85;6.35;;;24.40;89.00;;;;;;6205872;28;89116;-69
2023/06/20 13:33:32;;;;;;;6.47;5.97;;;24.40;89.10;;;;;;6198531;28;88856;-70
2023/06/20 13:36:34;;;;;;;6.38;5.88;;;24.30;89.10;;;;;;6205099;28;87952;-69
2023/06/20 13:39:38;;;;;;;6.50;6.00;;;24.40;89.10;;;;;;6203261;28;89066;-69
2023/06/20 13:42:42;;;;;;;6.53;6.03;;;24.40;89.10;;;;;;6190480;28;89321;-69
2023/06/20 13:45:44;;;;;;;6.45;5.95;;;24.40;89.20;;;;;;6205867;28;87919;-69
2023/06/20 13:48:47;;;;;;;6.63;6.10;;;24.40;89.10;;;;;;6204882;28;89093;-69
2023/06/20 13:51:49;;;;;;;6.10;5.60;;;24.40;89.10;;;;;;6205880;28;87838;-69
2023/06/20 13:54:52;;;;;;;6.72;6.07;;;24.40;89.10;;;;;;6206097;28;88375;-69
2023/06/20 13:57:54;;;;;;;6.20;5.72;;;24.40;90.00;;;;;;6205220;28;89108;-69
2023/06/20 14:00:56;;;;;;;6.55;6.03;;;24.40;89.20;;;;;;6204984;28;89659;-69
2023/06/20 14:04:01;;;;;;;5.90;5.40;;;24.40;89.20;;;;;;6202386;28;90290;-69
2023/06/20 14:07:03;;;;;;;6.38;5.88;;;24.40;89.10;;;;;;6187923;28;89072;-70
2023/06/20 14:10:07;;;;;;;6.30;5.78;;;24.40;89.10;;;;;;6197220;28;89435;-69
2023/06/20 14:13:11;;;;;;;6.00;5.50;;;24.40;89.10;;;;;;6206027;28;87980;-70
2023/06/20 14:16:13;;;;;;;6.75;6.15;;;24.40;89.00;;;;;;6192416;28;89320;-70
2023/06/20 14:19:16;;;;;;;6.13;5.63;;;24.40;88.90;;;;;;6205910;28;89235;-70
2023/06/20 14:22:17;;;;;;;6.30;5.80;;;24.40;88.90;;;;;;6205413;28;90427;-70
2023/06/20 14:25:21;;;;;;;6.40;5.90;;;24.40;89.00;;;;;;6209378;28;88707;-70
2023/06/20 14:28:24;;;;;;;6.00;5.50;;;24.40;89.10;;;;;;6208279;28;89043;-70
2023/06/20 14:31:26;;;;;;;6.55;5.95;;;24.40;89.10;;;;;;6207926;28;89240;-69
2023/06/20 14:34:28;;;;;;;6.63;6.00;;;24.40;89.10;;;;;;6209093;28;90297;-70
2023/06/20 14:37:30;;;;;;;5.93;5.43;;;24.40;89.10;;;;;;6210504;28;89099;-70
2023/06/20 14:40:34;;;;;;;6.30;5.80;;;24.40;89.10;;;;;;6204334;28;89456;-70
2023/06/20 14:43:36;;;;;;;6.15;5.65;;;24.50;89.30;;;;;;6208178;28;89421;-70
2023/06/20 14:46:38;;;;;;;5.80;5.35;;;24.50;90.00;;;;;;6207284;28;89360;-70
2023/06/20 14:49:42;;;;;;;5.72;5.22;;;24.40;89.10;;;;;;6195542;28;89140;-70
2023/06/20 14:52:44;;;;;;;5.80;5.40;;;24.50;89.20;;;;;;6195451;28;89061;-70
2023/06/20 14:55:48;;;;;;;5.75;5.35;;;24.50;89.30;;;;;;6195270;28;88284;-70
2023/06/20 14:58:50;;;;;;;5.75;5.25;;;24.40;90.00;;;;;;6207019;28;89175;-70
2023/06/20 15:01:52;;;;;;;5.65;5.25;;;24.40;89.20;;;;;;6197885;28;88739;-69
2023/06/20 15:04:54;;;;;;;5.65;5.20;;;24.50;89.20;;;;;;6192014;28;89743;-70
2023/06/20 15:07:57;;;;;;;6.25;5.75;;;24.40;89.10;;;;;;6194024;28;88183;-70
2023/06/20 15:11:01;;;;;;;6.10;5.60;;;24.50;89.10;;;;;;6204367;28;89013;-70
2023/06/20 15:14:03;;;;;;;5.63;5.22;;;24.50;89.10;;;;;;6208439;28;89175;-70
2023/06/20 15:17:05;;;;;;;5.80;5.40;;;24.40;89.00;;;;;;6208067;28;89406;-70
2023/06/20 15:20:08;;;;;;;5.65;5.15;;;24.40;89.10;;;;;;6207974;28;88921;-70
2023/06/20 15:23:10;;;;;;;6.50;5.90;;;24.50;89.20;;;;;;6208428;28;89053;-70
2023/06/20 15:26:13;;;;;;;6.25;5.75;;;24.40;89.10;;;;;;6195779;28;88581;-69
2023/06/20 15:29:19;;;;;;;6.40;5.90;;;24.50;89.20;;;;;;6186391;28;89334;-69
2023/06/20 15:32:21;;;;;;;6.07;5.57;;;24.50;89.30;;;;;;6203483;28;89119;-69
2023/06/20 15:35:23;;;;;;;5.70;5.30;;;24.50;89.30;;;;;;6205479;28;90077;-69
2023/06/20 15:38:25;;;;;;;6.00;5.50;;;24.50;89.30;;;;;;6203545;28;89268;-69
2023/06/20 15:41:30;;;;;;;5.80;5.30;;;24.50;89.30;;;;;;6208544;28;87971;-69
2023/06/20 15:44:32;;;;;;;5.88;5.30;;;24.50;89.30;;;;;;6207762;28;89062;-69
2023/06/20 15:47:34;;;;;;;5.90;5.40;;;24.50;89.30;;;;;;6207546;28;89085;-70
2023/06/20 15:50:36;;;;;;;5.60;5.20;;;24.50;89.30;;;;;;6207541;28;89085;-69
2023/06/20 15:53:38;;;;;;;5.78;5.35;;;24.50;89.30;;;;;;6205408;28;89087;-69
2023/06/20 15:56:41;;;;;;;5.68;5.20;;;24.50;89.30;;;;;;6197306;28;88313;-70